sensor_id;sensor_type;location;lat;lon;timestamp;P1;durP1;ratioP1;P2;durP2;ratioP2
38609;SDS011;24367;51.640;9.566;2022-10-16T00:01:38;1.73;;;1.10;;
38609;SDS011;24367;51.640;9.566;2022-10-16T00:04:04;2.47;;;1.00;;
38609;SDS011;24367;51.640;9.566;2022-10-16T00:06:31;2.45;;;1.40;;
38609;SDS011;24367;51.640;9.566;2022-10-16T00:08:58;2.40;;;1.05;;
38609;SDS011;24367;51.640;9.566;2022-10-16T00:11:25;2.13;;;1.23;;
38609;SDS011;24367;51.640;9.566;2022-10-16T00:13:55;2.42;;;1.38;;
38609;SDS011;24367;51.640;9.566;2022-10-16T00:16:24;2.00;;;1.08;;
38609;SDS011;24367;51.640;9.566;2022-10-16T00:18:51;2.08;;;1.08;;
38609;SDS011;24367;51.640;9.566;2022-10-16T00:21:18;1.95;;;1.20;;
38609;SDS011;24367;51.640;9.566;2022-10-16T00:23:46;2.80;;;1.27;;
38609;SDS011;24367;51.640;9.566;2022-10-16T00:26:16;3.70;;;1.23;;
38609;SDS011;24367;51.640;9.566;2022-10-16T00:28:44;1.52;;;1.00;;
38609;SDS011;24367;51.640;9.566;2022-10-16T00:31:12;2.33;;;1.30;;
38609;SDS011;24367;51.640;9.566;2022-10-16T00:33:40;1.40;;;0.98;;
38609;SDS011;24367;51.640;9.566;2022-10-16T00:36:08;4.72;;;1.23;;
38609;SDS011;24367;51.640;9.566;2022-10-16T00:38:37;2.30;;;1.17;;
38609;SDS011;24367;51.640;9.566;2022-10-16T00:41:04;3.28;;;1.40;;
38609;SDS011;24367;51.640;9.566;2022-10-16T00:43:32;3.38;;;1.00;;
38609;SDS011;24367;51.640;9.566;2022-10-16T00:46:01;3.00;;;1.63;;
38609;SDS011;24367;51.640;9.566;2022-10-16T00:48:29;2.00;;;1.00;;
38609;SDS011;24367;51.640;9.566;2022-10-16T00:50:57;2.72;;;1.30;;
38609;SDS011;24367;51.640;9.566;2022-10-16T00:53:24;2.80;;;1.40;;
38609;SDS011;24367;51.640;9.566;2022-10-16T00:55:51;2.45;;;1.25;;
38609;SDS011;24367;51.640;9.566;2022-10-16T00:58:18;2.33;;;1.35;;
38609;SDS011;24367;51.640;9.566;2022-10-16T01:00:44;2.55;;;1.20;;
38609;SDS011;24367;51.640;9.566;2022-10-16T01:06:04;1.92;;;0.98;;
38609;SDS011;24367;51.640;9.566;2022-10-16T01:08:43;1.70;;;1.00;;
38609;SDS011;24367;51.640;9.566;2022-10-16T01:11:13;1.60;;;1.10;;
38609;SDS011;24367;51.640;9.566;2022-10-16T01:13:46;2.05;;;1.02;;
38609;SDS011;24367;51.640;9.566;2022-10-16T01:16:15;2.10;;;1.08;;
38609;SDS011;24367;51.640;9.566;2022-10-16T01:18:46;2.13;;;0.98;;
38609;SDS011;24367;51.640;9.566;2022-10-16T01:21:19;2.78;;;1.10;;
38609;SDS011;24367;51.640;9.566;2022-10-16T01:23:51;2.50;;;1.10;;
38609;SDS011;24367;51.640;9.566;2022-10-16T01:26:28;1.83;;;1.08;;
38609;SDS011;24367;51.640;9.566;2022-10-16T01:29:03;1.85;;;1.00;;
38609;SDS011;24367;51.640;9.566;2022-10-16T01:31:34;2.97;;;1.25;;
38609;SDS011;24367;51.640;9.566;2022-10-16T01:34:03;2.28;;;1.00;;
38609;SDS011;24367;51.640;9.566;2022-10-16T01:36:35;2.13;;;1.10;;
38609;SDS011;24367;51.640;9.566;2022-10-16T01:39:03;2.65;;;0.98;;
38609;SDS011;24367;51.640;9.566;2022-10-16T01:41:31;2.03;;;0.90;;
38609;SDS011;24367;51.640;9.566;2022-10-16T01:44:01;2.60;;;1.20;;
38609;SDS011;24367;51.640;9.566;2022-10-16T01:46:31;2.30;;;1.10;;
38609;SDS011;24367;51.640;9.566;2022-10-16T01:48:59;2.80;;;1.10;;
38609;SDS011;24367;51.640;9.566;2022-10-16T01:51:26;1.70;;;1.00;;
38609;SDS011;24367;51.640;9.566;2022-10-16T01:53:54;1.50;;;0.90;;
38609;SDS011;24367;51.640;9.566;2022-10-16T01:56:23;1.70;;;1.00;;
38609;SDS011;24367;51.640;9.566;2022-10-16T01:58:52;1.83;;;1.10;;
38609;SDS011;24367;51.640;9.566;2022-10-16T02:01:21;2.90;;;1.05;;
38609;SDS011;24367;51.640;9.566;2022-10-16T02:03:50;1.83;;;1.10;;
38609;SDS011;24367;51.640;9.566;2022-10-16T02:06:18;1.65;;;1.05;;
38609;SDS011;24367;51.640;9.566;2022-10-16T02:08:45;1.92;;;1.02;;
38609;SDS011;24367;51.640;9.566;2022-10-16T02:11:11;2.78;;;1.17;;
38609;SDS011;24367;51.640;9.566;2022-10-16T02:13:38;2.40;;;1.10;;
38609;SDS011;24367;51.640;9.566;2022-10-16T02:16:07;2.55;;;1.05;;
38609;SDS011;24367;51.640;9.566;2022-10-16T02:18:36;1.90;;;0.90;;
38609;SDS011;24367;51.640;9.566;2022-10-16T02:21:04;1.95;;;0.80;;
38609;SDS011;24367;51.640;9.566;2022-10-16T02:26:04;1.90;;;0.93;;
38609;SDS011;24367;51.640;9.566;2022-10-16T02:28:34;1.83;;;1.00;;
38609;SDS011;24367;51.640;9.566;2022-10-16T02:31:04;1.73;;;0.80;;
38609;SDS011;24367;51.640;9.566;2022-10-16T02:33:36;3.35;;;1.00;;
38609;SDS011;24367;51.640;9.566;2022-10-16T02:36:03;2.00;;;1.10;;
38609;SDS011;24367;51.640;9.566;2022-10-16T02:38:30;1.60;;;1.10;;
38609;SDS011;24367;51.640;9.566;2022-10-16T02:40:57;1.33;;;0.80;;
38609;SDS011;24367;51.640;9.566;2022-10-16T02:43:24;2.13;;;1.02;;
38609;SDS011;24367;51.640;9.566;2022-10-16T02:45:51;2.17;;;1.10;;
38609;SDS011;24367;51.640;9.566;2022-10-16T02:48:17;1.65;;;0.80;;
38609;SDS011;24367;51.640;9.566;2022-10-16T02:50:45;1.73;;;0.98;;
38609;SDS011;24367;51.640;9.566;2022-10-16T02:53:12;1.77;;;1.00;;
38609;SDS011;24367;51.640;9.566;2022-10-16T02:55:38;2.08;;;0.82;;
38609;SDS011;24367;51.640;9.566;2022-10-16T02:58:05;1.60;;;1.00;;
38609;SDS011;24367;51.640;9.566;2022-10-16T03:00:32;2.55;;;0.95;;
38609;SDS011;24367;51.640;9.566;2022-10-16T03:02:58;1.98;;;0.98;;
38609;SDS011;24367;51.640;9.566;2022-10-16T03:05:25;2.17;;;0.90;;
38609;SDS011;24367;51.640;9.566;2022-10-16T03:07:52;1.95;;;1.02;;
38609;SDS011;24367;51.640;9.566;2022-10-16T03:10:19;1.65;;;1.05;;
38609;SDS011;24367;51.640;9.566;2022-10-16T03:12:46;3.65;;;0.95;;
38609;SDS011;24367;51.640;9.566;2022-10-16T03:15:12;1.88;;;0.90;;
38609;SDS011;24367;51.640;9.566;2022-10-16T03:17:39;1.83;;;0.80;;
38609;SDS011;24367;51.640;9.566;2022-10-16T03:20:06;3.10;;;1.10;;
38609;SDS011;24367;51.640;9.566;2022-10-16T03:22:33;1.63;;;0.90;;
38609;SDS011;24367;51.640;9.566;2022-10-16T03:25:01;1.45;;;0.80;;
38609;SDS011;24367;51.640;9.566;2022-10-16T03:27:28;1.50;;;0.90;;
38609;SDS011;24367;51.640;9.566;2022-10-16T03:29:55;3.38;;;0.82;;
38609;SDS011;24367;51.640;9.566;2022-10-16T03:32:21;3.10;;;1.23;;
38609;SDS011;24367;51.640;9.566;2022-10-16T03:34:50;2.05;;;1.20;;
38609;SDS011;24367;51.640;9.566;2022-10-16T03:37:18;2.45;;;0.95;;
38609;SDS011;24367;51.640;9.566;2022-10-16T03:39:44;2.25;;;0.90;;
38609;SDS011;24367;51.640;9.566;2022-10-16T03:42:12;1.58;;;0.85;;
38609;SDS011;24367;51.640;9.566;2022-10-16T03:44:39;2.78;;;0.90;;
38609;SDS011;24367;51.640;9.566;2022-10-16T03:47:05;1.20;;;0.70;;
38609;SDS011;24367;51.640;9.566;2022-10-16T03:49:32;1.35;;;0.90;;
38609;SDS011;24367;51.640;9.566;2022-10-16T03:51:58;2.47;;;1.00;;
38609;SDS011;24367;51.640;9.566;2022-10-16T03:54:25;1.85;;;1.00;;
38609;SDS011;24367;51.640;9.566;2022-10-16T03:56:51;1.88;;;0.80;;
38609;SDS011;24367;51.640;9.566;2022-10-16T03:59:19;1.55;;;0.75;;
38609;SDS011;24367;51.640;9.566;2022-10-16T04:01:46;2.63;;;0.80;;
38609;SDS011;24367;51.640;9.566;2022-10-16T04:04:12;1.77;;;0.80;;
38609;SDS011;24367;51.640;9.566;2022-10-16T04:06:39;1.75;;;0.88;;
38609;SDS011;24367;51.640;9.566;2022-10-16T04:09:05;2.63;;;0.90;;
38609;SDS011;24367;51.640;9.566;2022-10-16T04:11:32;1.52;;;0.95;;
38609;SDS011;24367;51.640;9.566;2022-10-16T04:13:58;2.72;;;0.98;;
38609;SDS011;24367;51.640;9.566;2022-10-16T04:16:26;1.50;;;0.80;;
38609;SDS011;24367;51.640;9.566;2022-10-16T04:18:53;1.00;;;0.80;;
38609;SDS011;24367;51.640;9.566;2022-10-16T04:21:19;1.45;;;0.90;;
38609;SDS011;24367;51.640;9.566;2022-10-16T04:23:47;1.30;;;0.80;;
38609;SDS011;24367;51.640;9.566;2022-10-16T04:26:14;1.75;;;0.90;;
38609;SDS011;24367;51.640;9.566;2022-10-16T04:28:40;2.40;;;1.00;;
38609;SDS011;24367;51.640;9.566;2022-10-16T04:31:07;1.33;;;0.70;;
38609;SDS011;24367;51.640;9.566;2022-10-16T04:33:35;2.70;;;1.05;;
38609;SDS011;24367;51.640;9.566;2022-10-16T04:36:02;1.50;;;0.80;;
38609;SDS011;24367;51.640;9.566;2022-10-16T04:38:29;2.03;;;0.90;;
38609;SDS011;24367;51.640;9.566;2022-10-16T04:40:56;2.00;;;0.90;;
38609;SDS011;24367;51.640;9.566;2022-10-16T04:43:23;1.60;;;0.93;;
38609;SDS011;24367;51.640;9.566;2022-10-16T04:45:50;1.58;;;0.80;;
38609;SDS011;24367;51.640;9.566;2022-10-16T04:48:16;1.70;;;1.00;;
38609;SDS011;24367;51.640;9.566;2022-10-16T04:50:44;1.20;;;0.82;;
38609;SDS011;24367;51.640;9.566;2022-10-16T04:53:11;1.35;;;0.80;;
38609;SDS011;24367;51.640;9.566;2022-10-16T04:55:37;1.25;;;0.70;;
38609;SDS011;24367;51.640;9.566;2022-10-16T04:58:04;1.02;;;0.70;;
38609;SDS011;24367;51.640;9.566;2022-10-16T05:00:31;2.10;;;0.80;;
38609;SDS011;24367;51.640;9.566;2022-10-16T05:02:57;2.05;;;0.75;;
38609;SDS011;24367;51.640;9.566;2022-10-16T05:05:25;1.40;;;0.70;;
38609;SDS011;24367;51.640;9.566;2022-10-16T05:07:53;1.92;;;0.82;;
38609;SDS011;24367;51.640;9.566;2022-10-16T05:10:20;1.90;;;0.90;;
38609;SDS011;24367;51.640;9.566;2022-10-16T05:12:46;1.35;;;0.90;;
38609;SDS011;24367;51.640;9.566;2022-10-16T05:15:13;2.65;;;1.05;;
38609;SDS011;24367;51.640;9.566;2022-10-16T05:17:40;1.95;;;1.08;;
38609;SDS011;24367;51.640;9.566;2022-10-16T05:20:06;2.08;;;0.73;;
38609;SDS011;24367;51.640;9.566;2022-10-16T05:22:33;1.55;;;0.70;;
38609;SDS011;24367;51.640;9.566;2022-10-16T05:25:01;1.58;;;0.90;;
38609;SDS011;24367;51.640;9.566;2022-10-16T05:27:28;2.55;;;0.80;;
38609;SDS011;24367;51.640;9.566;2022-10-16T05:29:54;1.13;;;0.70;;
38609;SDS011;24367;51.640;9.566;2022-10-16T05:32:21;1.27;;;0.80;;
38609;SDS011;24367;51.640;9.566;2022-10-16T05:34:47;3.15;;;0.90;;
38609;SDS011;24367;51.640;9.566;2022-10-16T05:37:14;1.38;;;0.68;;
38609;SDS011;24367;51.640;9.566;2022-10-16T05:39:40;3.00;;;0.90;;
38609;SDS011;24367;51.640;9.566;2022-10-16T05:42:08;1.02;;;0.60;;
38609;SDS011;24367;51.640;9.566;2022-10-16T05:44:35;1.83;;;1.00;;
38609;SDS011;24367;51.640;9.566;2022-10-16T05:47:01;1.73;;;0.77;;
38609;SDS011;24367;51.640;9.566;2022-10-16T05:49:28;1.05;;;0.80;;
38609;SDS011;24367;51.640;9.566;2022-10-16T05:51:54;1.23;;;0.80;;
38609;SDS011;24367;51.640;9.566;2022-10-16T05:54:21;1.38;;;0.88;;
38609;SDS011;24367;51.640;9.566;2022-10-16T05:56:47;1.38;;;0.80;;
38609;SDS011;24367;51.640;9.566;2022-10-16T05:59:15;1.38;;;0.60;;
38609;SDS011;24367;51.640;9.566;2022-10-16T06:01:42;0.90;;;0.50;;
38609;SDS011;24367;51.640;9.566;2022-10-16T06:04:08;0.93;;;0.70;;
38609;SDS011;24367;51.640;9.566;2022-10-16T06:06:35;1.70;;;0.95;;
38609;SDS011;24367;51.640;9.566;2022-10-16T06:09:02;0.90;;;0.60;;
38609;SDS011;24367;51.640;9.566;2022-10-16T06:11:30;0.88;;;0.60;;
38609;SDS011;24367;51.640;9.566;2022-10-16T06:13:58;1.33;;;0.70;;
38609;SDS011;24367;51.640;9.566;2022-10-16T06:16:28;1.50;;;0.80;;
38609;SDS011;24367;51.640;9.566;2022-10-16T06:18:55;1.33;;;0.85;;
38609;SDS011;24367;51.640;9.566;2022-10-16T06:21:23;1.13;;;0.68;;
38609;SDS011;24367;51.640;9.566;2022-10-16T06:23:50;0.90;;;0.70;;
38609;SDS011;24367;51.640;9.566;2022-10-16T06:26:18;1.58;;;0.95;;
38609;SDS011;24367;51.640;9.566;2022-10-16T06:28:45;1.33;;;1.00;;
38609;SDS011;24367;51.640;9.566;2022-10-16T06:31:12;1.40;;;0.70;;
38609;SDS011;24367;51.640;9.566;2022-10-16T06:33:40;2.53;;;0.77;;
38609;SDS011;24367;51.640;9.566;2022-10-16T06:36:08;1.35;;;0.60;;
38609;SDS011;24367;51.640;9.566;2022-10-16T06:38:35;1.42;;;0.70;;
38609;SDS011;24367;51.640;9.566;2022-10-16T06:41:03;2.45;;;0.80;;
38609;SDS011;24367;51.640;9.566;2022-10-16T06:43:30;1.50;;;0.77;;
38609;SDS011;24367;51.640;9.566;2022-10-16T06:45:58;1.00;;;0.70;;
38609;SDS011;24367;51.640;9.566;2022-10-16T06:48:26;1.48;;;0.95;;
38609;SDS011;24367;51.640;9.566;2022-10-16T06:50:58;2.22;;;1.10;;
38609;SDS011;24367;51.640;9.566;2022-10-16T06:53:26;2.17;;;0.68;;
38609;SDS011;24367;51.640;9.566;2022-10-16T06:55:54;1.35;;;0.80;;
38609;SDS011;24367;51.640;9.566;2022-10-16T06:58:21;1.35;;;0.80;;
38609;SDS011;24367;51.640;9.566;2022-10-16T07:00:48;1.20;;;0.80;;
38609;SDS011;24367;51.640;9.566;2022-10-16T07:03:15;1.33;;;0.80;;
38609;SDS011;24367;51.640;9.566;2022-10-16T07:05:42;1.05;;;0.80;;
38609;SDS011;24367;51.640;9.566;2022-10-16T07:08:10;1.48;;;0.90;;
38609;SDS011;24367;51.640;9.566;2022-10-16T07:10:37;1.02;;;0.70;;
38609;SDS011;24367;51.640;9.566;2022-10-16T07:13:03;0.57;;;0.45;;
38609;SDS011;24367;51.640;9.566;2022-10-16T07:15:30;1.45;;;0.68;;
38609;SDS011;24367;51.640;9.566;2022-10-16T07:17:57;1.25;;;0.60;;
38609;SDS011;24367;51.640;9.566;2022-10-16T07:20:23;1.13;;;0.70;;
38609;SDS011;24367;51.640;9.566;2022-10-16T07:22:50;1.30;;;0.85;;
38609;SDS011;24367;51.640;9.566;2022-10-16T07:25:18;1.58;;;0.80;;
38609;SDS011;24367;51.640;9.566;2022-10-16T07:27:44;1.10;;;0.70;;
38609;SDS011;24367;51.640;9.566;2022-10-16T07:30:11;1.65;;;0.50;;
38609;SDS011;24367;51.640;9.566;2022-10-16T07:32:38;1.20;;;0.82;;
38609;SDS011;24367;51.640;9.566;2022-10-16T07:35:05;2.22;;;0.90;;
38609;SDS011;24367;51.640;9.566;2022-10-16T07:37:32;1.40;;;0.70;;
38609;SDS011;24367;51.640;9.566;2022-10-16T07:39:58;1.42;;;0.80;;
38609;SDS011;24367;51.640;9.566;2022-10-16T07:42:26;1.38;;;0.77;;
38609;SDS011;24367;51.640;9.566;2022-10-16T07:44:53;1.25;;;0.90;;
38609;SDS011;24367;51.640;9.566;2022-10-16T07:47:19;0.63;;;0.60;;
38609;SDS011;24367;51.640;9.566;2022-10-16T07:49:46;1.75;;;0.70;;
38609;SDS011;24367;51.640;9.566;2022-10-16T07:52:13;0.93;;;0.57;;
38609;SDS011;24367;51.640;9.566;2022-10-16T07:54:39;1.67;;;0.80;;
38609;SDS011;24367;51.640;9.566;2022-10-16T07:57:06;2.00;;;0.70;;
38609;SDS011;24367;51.640;9.566;2022-10-16T07:59:34;1.02;;;0.73;;
38609;SDS011;24367;51.640;9.566;2022-10-16T08:02:00;2.40;;;0.70;;
38609;SDS011;24367;51.640;9.566;2022-10-16T08:04:27;2.30;;;0.68;;
38609;SDS011;24367;51.640;9.566;2022-10-16T08:06:53;5.93;;;1.10;;
38609;SDS011;24367;51.640;9.566;2022-10-16T08:09:20;7.30;;;1.25;;
38609;SDS011;24367;51.640;9.566;2022-10-16T08:11:47;3.25;;;1.40;;
38609;SDS011;24367;51.640;9.566;2022-10-16T08:14:13;3.85;;;2.05;;
38609;SDS011;24367;51.640;9.566;2022-10-16T08:16:41;3.00;;;1.60;;
38609;SDS011;24367;51.640;9.566;2022-10-16T08:19:08;4.10;;;2.20;;
38609;SDS011;24367;51.640;9.566;2022-10-16T08:21:34;3.95;;;1.52;;
38609;SDS011;24367;51.640;9.566;2022-10-16T08:24:01;4.32;;;1.85;;
38609;SDS011;24367;51.640;9.566;2022-10-16T08:26:27;5.07;;;1.60;;
38609;SDS011;24367;51.640;9.566;2022-10-16T08:28:54;5.57;;;1.75;;
38609;SDS011;24367;51.640;9.566;2022-10-16T08:31:21;3.53;;;1.58;;
38609;SDS011;24367;51.640;9.566;2022-10-16T08:33:50;5.03;;;1.92;;
38609;SDS011;24367;51.640;9.566;2022-10-16T08:36:17;3.10;;;1.55;;
38609;SDS011;24367;51.640;9.566;2022-10-16T08:38:43;6.35;;;1.80;;
38609;SDS011;24367;51.640;9.566;2022-10-16T08:41:17;6.57;;;1.88;;
38609;SDS011;24367;51.640;9.566;2022-10-16T08:46:51;3.05;;;1.30;;
38609;SDS011;24367;51.640;9.566;2022-10-16T08:49:27;6.85;;;1.77;;
38609;SDS011;24367;51.640;9.566;2022-10-16T08:51:53;2.55;;;1.40;;
38609;SDS011;24367;51.640;9.566;2022-10-16T08:54:23;5.68;;;1.05;;
38609;SDS011;24367;51.640;9.566;2022-10-16T08:56:54;5.60;;;1.40;;
38609;SDS011;24367;51.640;9.566;2022-10-16T08:59:20;6.03;;;1.60;;
38609;SDS011;24367;51.640;9.566;2022-10-16T09:01:47;6.45;;;1.40;;
38609;SDS011;24367;51.640;9.566;2022-10-16T09:04:31;7.28;;;1.42;;
38609;SDS011;24367;51.640;9.566;2022-10-16T09:07:11;4.65;;;1.30;;
38609;SDS011;24367;51.640;9.566;2022-10-16T09:09:45;7.15;;;1.13;;
38609;SDS011;24367;51.640;9.566;2022-10-16T09:12:17;5.00;;;1.17;;
38609;SDS011;24367;51.640;9.566;2022-10-16T09:14:50;5.20;;;1.20;;
38609;SDS011;24367;51.640;9.566;2022-10-16T09:17:27;5.50;;;1.30;;
38609;SDS011;24367;51.640;9.566;2022-10-16T09:20:03;5.43;;;1.00;;
38609;SDS011;24367;51.640;9.566;2022-10-16T09:22:40;5.47;;;1.25;;
38609;SDS011;24367;51.640;9.566;2022-10-16T09:25:10;2.50;;;1.02;;
38609;SDS011;24367;51.640;9.566;2022-10-16T09:27:38;3.45;;;1.33;;
38609;SDS011;24367;51.640;9.566;2022-10-16T09:30:10;3.38;;;1.25;;
38609;SDS011;24367;51.640;9.566;2022-10-16T09:32:38;3.47;;;1.10;;
38609;SDS011;24367;51.640;9.566;2022-10-16T09:35:09;11.73;;;1.42;;
38609;SDS011;24367;51.640;9.566;2022-10-16T09:40:06;7.72;;;1.58;;
38609;SDS011;24367;51.640;9.566;2022-10-16T09:42:34;4.32;;;1.23;;
38609;SDS011;24367;51.640;9.566;2022-10-16T09:45:02;4.55;;;1.13;;
38609;SDS011;24367;51.640;9.566;2022-10-16T09:47:30;3.20;;;1.10;;
38609;SDS011;24367;51.640;9.566;2022-10-16T09:49:58;2.30;;;1.13;;
38609;SDS011;24367;51.640;9.566;2022-10-16T09:52:29;4.22;;;1.10;;
38609;SDS011;24367;51.640;9.566;2022-10-16T09:54:57;4.18;;;1.38;;
38609;SDS011;24367;51.640;9.566;2022-10-16T09:57:24;2.67;;;1.25;;
38609;SDS011;24367;51.640;9.566;2022-10-16T09:59:51;2.42;;;1.20;;
38609;SDS011;24367;51.640;9.566;2022-10-16T10:02:19;4.28;;;1.67;;
38609;SDS011;24367;51.640;9.566;2022-10-16T10:04:50;3.55;;;1.20;;
38609;SDS011;24367;51.640;9.566;2022-10-16T10:07:20;2.03;;;1.08;;
38609;SDS011;24367;51.640;9.566;2022-10-16T10:09:51;2.30;;;1.00;;
38609;SDS011;24367;51.640;9.566;2022-10-16T10:12:19;3.20;;;1.20;;
38609;SDS011;24367;51.640;9.566;2022-10-16T10:14:47;3.90;;;1.23;;
38609;SDS011;24367;51.640;9.566;2022-10-16T10:17:16;4.22;;;1.05;;
38609;SDS011;24367;51.640;9.566;2022-10-16T10:19:47;6.20;;;1.10;;
38609;SDS011;24367;51.640;9.566;2022-10-16T10:22:26;2.45;;;0.73;;
38609;SDS011;24367;51.640;9.566;2022-10-16T10:27:54;3.92;;;0.50;;
38609;SDS011;24367;51.640;9.566;2022-10-16T10:30:27;1.20;;;0.60;;
38609;SDS011;24367;51.640;9.566;2022-10-16T10:33:01;2.67;;;0.85;;
38609;SDS011;24367;51.640;9.566;2022-10-16T10:35:39;2.88;;;0.80;;
38609;SDS011;24367;51.640;9.566;2022-10-16T10:38:12;1.25;;;0.50;;
38609;SDS011;24367;51.640;9.566;2022-10-16T10:40:50;1.52;;;0.55;;
38609;SDS011;24367;51.640;9.566;2022-10-16T10:43:22;3.35;;;0.70;;
38609;SDS011;24367;51.640;9.566;2022-10-16T10:45:57;1.95;;;0.63;;
38609;SDS011;24367;51.640;9.566;2022-10-16T10:51:20;2.22;;;0.52;;
38609;SDS011;24367;51.640;9.566;2022-10-16T10:53:50;3.90;;;0.68;;
38609;SDS011;24367;51.640;9.566;2022-10-16T10:56:25;4.13;;;0.93;;
38609;SDS011;24367;51.640;9.566;2022-10-16T10:59:11;4.95;;;0.60;;
38609;SDS011;24367;51.640;9.566;2022-10-16T11:01:47;4.90;;;0.75;;
38609;SDS011;24367;51.640;9.566;2022-10-16T11:04:29;6.95;;;0.90;;
38609;SDS011;24367;51.640;9.566;2022-10-16T11:07:01;3.95;;;1.15;;
38609;SDS011;24367;51.640;9.566;2022-10-16T11:09:30;2.88;;;0.85;;
38609;SDS011;24367;51.640;9.566;2022-10-16T11:12:02;3.83;;;0.90;;
38609;SDS011;24367;51.640;9.566;2022-10-16T11:14:34;4.68;;;0.98;;
38609;SDS011;24367;51.640;9.566;2022-10-16T11:17:05;7.07;;;1.10;;
38609;SDS011;24367;51.640;9.566;2022-10-16T11:19:35;4.32;;;0.88;;
38609;SDS011;24367;51.640;9.566;2022-10-16T11:22:06;7.30;;;1.30;;
38609;SDS011;24367;51.640;9.566;2022-10-16T11:24:41;3.50;;;0.88;;
38609;SDS011;24367;51.640;9.566;2022-10-16T11:27:14;5.32;;;0.70;;
38609;SDS011;24367;51.640;9.566;2022-10-16T11:29:44;6.10;;;0.85;;
38609;SDS011;24367;51.640;9.566;2022-10-16T11:32:17;15.05;;;1.65;;
38609;SDS011;24367;51.640;9.566;2022-10-16T11:34:48;4.03;;;0.80;;
38609;SDS011;24367;51.640;9.566;2022-10-16T11:37:18;3.45;;;0.80;;
38609;SDS011;24367;51.640;9.566;2022-10-16T11:39:46;2.20;;;0.60;;
38609;SDS011;24367;51.640;9.566;2022-10-16T11:42:16;3.45;;;0.85;;
38609;SDS011;24367;51.640;9.566;2022-10-16T11:44:48;2.10;;;0.85;;
38609;SDS011;24367;51.640;9.566;2022-10-16T11:47:23;3.60;;;0.93;;
38609;SDS011;24367;51.640;9.566;2022-10-16T11:49:52;2.00;;;0.50;;
38609;SDS011;24367;51.640;9.566;2022-10-16T11:52:25;5.72;;;0.95;;
38609;SDS011;24367;51.640;9.566;2022-10-16T11:54:56;3.70;;;0.95;;
38609;SDS011;24367;51.640;9.566;2022-10-16T11:57:27;4.60;;;0.80;;
38609;SDS011;24367;51.640;9.566;2022-10-16T11:59:57;2.88;;;0.98;;
38609;SDS011;24367;51.640;9.566;2022-10-16T12:02:28;3.80;;;0.90;;
38609;SDS011;24367;51.640;9.566;2022-10-16T12:05:02;2.55;;;0.80;;
38609;SDS011;24367;51.640;9.566;2022-10-16T12:07:36;2.42;;;0.60;;
38609;SDS011;24367;51.640;9.566;2022-10-16T12:10:10;1.35;;;0.80;;
38609;SDS011;24367;51.640;9.566;2022-10-16T12:12:39;1.45;;;0.60;;
38609;SDS011;24367;51.640;9.566;2022-10-16T12:15:18;2.20;;;0.77;;
38609;SDS011;24367;51.640;9.566;2022-10-16T12:17:48;4.20;;;0.90;;
38609;SDS011;24367;51.640;9.566;2022-10-16T12:20:19;2.78;;;0.70;;
38609;SDS011;24367;51.640;9.566;2022-10-16T12:22:49;2.90;;;0.80;;
38609;SDS011;24367;51.640;9.566;2022-10-16T12:25:20;1.75;;;0.90;;
38609;SDS011;24367;51.640;9.566;2022-10-16T12:27:54;1.95;;;0.77;;
38609;SDS011;24367;51.640;9.566;2022-10-16T12:30:22;3.22;;;0.70;;
38609;SDS011;24367;51.640;9.566;2022-10-16T12:32:52;2.78;;;0.70;;
38609;SDS011;24367;51.640;9.566;2022-10-16T12:35:20;2.72;;;1.00;;
38609;SDS011;24367;51.640;9.566;2022-10-16T12:37:48;1.67;;;0.70;;
38609;SDS011;24367;51.640;9.566;2022-10-16T12:40:15;2.75;;;1.00;;
38609;SDS011;24367;51.640;9.566;2022-10-16T12:42:50;1.88;;;0.82;;
38609;SDS011;24367;51.640;9.566;2022-10-16T12:45:28;1.52;;;0.80;;
38609;SDS011;24367;51.640;9.566;2022-10-16T12:47:56;1.77;;;0.70;;
38609;SDS011;24367;51.640;9.566;2022-10-16T12:50:24;1.88;;;0.70;;
38609;SDS011;24367;51.640;9.566;2022-10-16T12:52:53;1.98;;;0.70;;
38609;SDS011;24367;51.640;9.566;2022-10-16T12:55:20;1.92;;;0.75;;
38609;SDS011;24367;51.640;9.566;2022-10-16T12:57:53;2.10;;;0.60;;
38609;SDS011;24367;51.640;9.566;2022-10-16T13:00:32;1.58;;;0.70;;
38609;SDS011;24367;51.640;9.566;2022-10-16T13:03:23;1.60;;;0.60;;
38609;SDS011;24367;51.640;9.566;2022-10-16T13:06:13;4.35;;;0.73;;
38609;SDS011;24367;51.640;9.566;2022-10-16T13:08:53;2.85;;;0.63;;
38609;SDS011;24367;51.640;9.566;2022-10-16T13:11:29;4.38;;;0.75;;
38609;SDS011;24367;51.640;9.566;2022-10-16T13:14:16;1.92;;;0.80;;
38609;SDS011;24367;51.640;9.566;2022-10-16T13:16:52;2.35;;;0.65;;
38609;SDS011;24367;51.640;9.566;2022-10-16T13:19:26;4.47;;;0.90;;
38609;SDS011;24367;51.640;9.566;2022-10-16T13:21:56;2.25;;;0.80;;
38609;SDS011;24367;51.640;9.566;2022-10-16T13:24:36;2.88;;;0.65;;
38609;SDS011;24367;51.640;9.566;2022-10-16T13:27:14;3.33;;;0.68;;
38609;SDS011;24367;51.640;9.566;2022-10-16T13:29:47;2.05;;;0.50;;
38609;SDS011;24367;51.640;9.566;2022-10-16T13:32:21;2.22;;;0.60;;
38609;SDS011;24367;51.640;9.566;2022-10-16T13:34:48;2.63;;;0.70;;
38609;SDS011;24367;51.640;9.566;2022-10-16T13:37:17;1.90;;;0.60;;
38609;SDS011;24367;51.640;9.566;2022-10-16T13:39:44;1.27;;;0.50;;
38609;SDS011;24367;51.640;9.566;2022-10-16T13:42:12;3.03;;;0.50;;
38609;SDS011;24367;51.640;9.566;2022-10-16T13:44:41;2.10;;;0.60;;
38609;SDS011;24367;51.640;9.566;2022-10-16T13:47:16;2.22;;;0.70;;
38609;SDS011;24367;51.640;9.566;2022-10-16T13:49:45;1.75;;;0.70;;
38609;SDS011;24367;51.640;9.566;2022-10-16T13:52:16;7.60;;;0.80;;
38609;SDS011;24367;51.640;9.566;2022-10-16T13:54:44;13.55;;;0.80;;
38609;SDS011;24367;51.640;9.566;2022-10-16T13:57:12;4.38;;;0.73;;
38609;SDS011;24367;51.640;9.566;2022-10-16T13:59:39;3.42;;;0.55;;
38609;SDS011;24367;51.640;9.566;2022-10-16T14:02:08;2.42;;;0.50;;
38609;SDS011;24367;51.640;9.566;2022-10-16T14:04:42;1.65;;;0.40;;
38609;SDS011;24367;51.640;9.566;2022-10-16T14:07:12;2.33;;;0.50;;
38609;SDS011;24367;51.640;9.566;2022-10-16T14:09:40;2.20;;;0.68;;
38609;SDS011;24367;51.640;9.566;2022-10-16T14:12:08;2.92;;;0.50;;
38609;SDS011;24367;51.640;9.566;2022-10-16T14:14:39;4.85;;;0.50;;
38609;SDS011;24367;51.640;9.566;2022-10-16T14:17:13;2.05;;;0.50;;
38609;SDS011;24367;51.640;9.566;2022-10-16T14:19:40;4.25;;;0.55;;
38609;SDS011;24367;51.640;9.566;2022-10-16T14:22:17;3.90;;;0.60;;
38609;SDS011;24367;51.640;9.566;2022-10-16T14:24:49;1.45;;;0.50;;
38609;SDS011;24367;51.640;9.566;2022-10-16T14:27:24;2.28;;;0.45;;
38609;SDS011;24367;51.640;9.566;2022-10-16T14:30:05;8.23;;;0.80;;
38609;SDS011;24367;51.640;9.566;2022-10-16T14:32:39;2.78;;;0.60;;
38609;SDS011;24367;51.640;9.566;2022-10-16T14:35:11;3.88;;;0.70;;
38609;SDS011;24367;51.640;9.566;2022-10-16T14:37:52;5.07;;;0.60;;
38609;SDS011;24367;51.640;9.566;2022-10-16T14:40:19;5.70;;;0.50;;
38609;SDS011;24367;51.640;9.566;2022-10-16T14:42:46;1.67;;;0.40;;
38609;SDS011;24367;51.640;9.566;2022-10-16T14:45:15;2.13;;;0.45;;
38609;SDS011;24367;51.640;9.566;2022-10-16T14:47:47;4.13;;;0.90;;
38609;SDS011;24367;51.640;9.566;2022-10-16T14:50:15;6.65;;;0.90;;
38609;SDS011;24367;51.640;9.566;2022-10-16T14:52:42;1.42;;;0.70;;
38609;SDS011;24367;51.640;9.566;2022-10-16T14:55:10;2.28;;;0.88;;
38609;SDS011;24367;51.640;9.566;2022-10-16T14:57:37;6.03;;;0.70;;
38609;SDS011;24367;51.640;9.566;2022-10-16T15:00:08;2.33;;;0.60;;
38609;SDS011;24367;51.640;9.566;2022-10-16T15:02:40;1.48;;;0.60;;
38609;SDS011;24367;51.640;9.566;2022-10-16T15:05:10;0.68;;;0.40;;
38609;SDS011;24367;51.640;9.566;2022-10-16T15:07:39;2.33;;;0.57;;
38609;SDS011;24367;51.640;9.566;2022-10-16T15:10:05;2.00;;;0.70;;
38609;SDS011;24367;51.640;9.566;2022-10-16T15:12:33;1.52;;;0.50;;
38609;SDS011;24367;51.640;9.566;2022-10-16T15:15:00;2.42;;;0.47;;
38609;SDS011;24367;51.640;9.566;2022-10-16T15:17:26;1.73;;;0.50;;